Nashville, Tennessee
Traffic Map
Current Weather Conditions
Nashville, Tennessee
Broken Clouds
Broken Clouds
67°
Feels Like: 67°
Wind Chill: 67° Ceiling: 12000
Heat Index: 67° Visibility: 10mi
Dew Point: 49° Wind: 5mph
Humidity: 52% Direction: 210° (SSW)
Pressure: 30in Gusts: 0mph
Raw Report DataKBNA 202053Z 21004KT 10SM SCT085 BKN120 19/09 A3000 RMK AO2 SLP156 T01940094 56014
Traffic Incident Summary
Active as of:
Severity:
Category:
InformationThere was an issue retrieving the traffic information for this location. Please try a different location or try again shortly.
Advertisements
Track Severe Weather on mobile